Terminal Aerodrome Forecast
Issued by NWS

Current Version | Previous Version | Graphics & Text | Print | Product List | Glossary Off
Versions: 1 2 3 4 5 6 7 8 9 10 11 12 13 14 15 16 17 18 19 20 21

000
FTUS42 KILM 291120
TAFCRE
TAF
KCRE 291120Z 2912/3012 03004KT P6SM BKN250
     FM291330 05009KT P6SM SCT030 BKN250
     FM291800 09011KT P6SM SCT045 BKN250
     FM300200 08005KT P6SM BKN250=

USA.gov is the U.S. government's official web portal to all federal, state and local government web resources and services.